Terminal Aerodrome Forecast
Issued by NWS

Home | Current Version | Previous Version | Graphics & Text | Print | Product List | Glossary On
Versions: 1 2 3 4 5 6 7 8 9 10 11 12 13 14 15 16 17 18 19 20 21 22 23 24 25 26 27 28 29 30 31
000
FTUS43 KICT 241722
TAFHUT
TAF
KHUT 241722Z 2418/2518 17015G23KT P6SM SCT250
     FM242300 22010KT P6SM BKN150
     FM250100 25008KT P6SM SCT040 BKN130
     FM250400 34016G24KT P6SM BKN015=

USA.gov is the U.S. government's official web portal to all federal, state and local government web resources and services.